createdAt,value
2022-11-05T00:02:05.918Z,6.43
2022-11-05T00:04:53.701Z,6.80
2022-11-05T00:07:44.478Z,7.20
2022-11-05T00:10:21.013Z,6.10
2022-11-05T00:13:07.378Z,7.13
2022-11-05T00:15:53.573Z,6.73
2022-11-05T00:18:22.074Z,6.10
2022-11-05T00:20:52.193Z,6.57
2022-11-05T00:23:38.226Z,5.87
2022-11-05T00:26:07.459Z,6.70
2022-11-05T00:28:36.254Z,6.27
2022-11-05T00:31:05.835Z,6.17
2022-11-05T00:33:34.274Z,6.43
2022-11-05T00:36:05.783Z,6.87
2022-11-05T00:38:34.676Z,6.80
2022-11-05T00:41:04.091Z,7.00
2022-11-05T00:43:50.126Z,6.33
2022-11-05T00:46:19.364Z,6.67
2022-11-05T00:49:05.551Z,7.43
2022-11-05T00:51:35.560Z,7.07
2022-11-05T00:54:04.197Z,7.30
2022-11-05T00:56:32.769Z,7.23
2022-11-05T00:59:01.258Z,7.10
2022-11-05T01:01:29.900Z,7.37
2022-11-05T01:03:58.365Z,6.67
2022-11-05T01:06:26.765Z,6.77
2022-11-05T01:08:57.796Z,6.60
2022-11-05T01:11:37.264Z,6.50
2022-11-05T01:14:07.735Z,7.27
2022-11-05T01:16:36.612Z,6.90
2022-11-05T01:19:06.135Z,7.60
2022-11-05T01:21:34.810Z,7.27
2022-11-05T01:24:05.601Z,7.17
2022-11-05T01:26:34.102Z,6.63
2022-11-05T01:29:02.691Z,6.00
2022-11-05T01:31:31.126Z,7.30
2022-11-05T01:33:59.566Z,7.10
2022-11-05T01:36:27.946Z,7.40
2022-11-05T01:38:56.341Z,7.23
2022-11-05T01:41:26.201Z,7.77
2022-11-05T01:43:55.608Z,7.33
2022-11-05T01:46:26.107Z,6.80
2022-11-05T01:49:01.743Z,6.90
2022-11-05T01:51:31.512Z,7.33
2022-11-05T01:54:01.960Z,6.57
2022-11-05T01:56:34.675Z,7.30
2022-11-05T01:59:05.476Z,7.30
2022-11-05T02:01:34.261Z,7.57
2022-11-05T02:04:04.033Z,8.07
2022-11-05T02:06:34.640Z,7.20
2022-11-05T02:09:05.086Z,7.13
2022-11-05T02:11:35.413Z,7.03
2022-11-05T02:14:04.109Z,7.90
2022-11-05T02:16:38.375Z,7.00
2022-11-05T02:19:12.088Z,7.27
2022-11-05T02:21:51.585Z,7.67
2022-11-05T02:24:32.792Z,7.77
2022-11-05T02:27:11.833Z,7.33
2022-11-05T02:29:57.983Z,7.80
2022-11-05T02:32:35.521Z,7.37
2022-11-05T02:35:17.468Z,6.90
2022-11-05T02:37:47.310Z,7.30
2022-11-05T02:40:17.790Z,6.77
2022-11-05T02:42:47.139Z,7.80
2022-11-05T02:45:22.055Z,6.73
2022-11-05T02:47:53.660Z,7.33
2022-11-05T02:50:26.299Z,7.23
2022-11-05T02:53:00.160Z,7.27
2022-11-05T02:55:29.589Z,7.70
2022-11-05T02:57:59.707Z,7.17
2022-11-05T03:00:41.958Z,7.07
2022-11-05T03:03:15.807Z,7.00
2022-11-05T03:05:48.672Z,6.77
2022-11-05T03:08:20.946Z,6.93
2022-11-05T03:10:52.136Z,6.83
2022-11-05T03:13:24.327Z,6.30
2022-11-05T03:15:58.019Z,7.23
2022-11-05T03:18:32.510Z,6.30
2022-11-05T03:21:02.773Z,6.50
2022-11-05T03:23:33.451Z,6.83
2022-11-05T03:26:06.408Z,6.07
2022-11-05T03:28:37.345Z,6.03
2022-11-05T03:31:07.346Z,6.30
2022-11-05T03:33:38.219Z,6.30
2022-11-05T03:36:09.153Z,5.77
2022-11-05T03:38:41.837Z,5.97
2022-11-05T03:41:11.769Z,6.23
2022-11-05T03:43:43.260Z,6.07
2022-11-05T03:46:12.613Z,5.67
2022-11-05T03:48:45.144Z,5.67
2022-11-05T03:51:15.399Z,5.67
2022-11-05T03:53:45.982Z,5.80
2022-11-05T03:56:18.161Z,5.70
2022-11-05T03:58:47.369Z,5.87
2022-11-05T04:01:16.009Z,5.90
2022-11-05T04:03:45.613Z,5.27
2022-11-05T04:06:31.805Z,5.77
2022-11-05T04:09:17.864Z,5.47
2022-11-05T04:12:03.947Z,5.97
2022-11-05T04:14:32.374Z,6.13
2022-11-05T04:17:09.700Z,5.77
2022-11-05T04:19:58.273Z,6.50
2022-11-05T04:22:45.301Z,6.20
2022-11-05T04:25:14.385Z,5.90
2022-11-05T04:27:42.683Z,6.07
2022-11-05T04:30:19.442Z,6.03
2022-11-05T04:33:05.525Z,6.23
2022-11-05T04:35:36.021Z,5.83
2022-11-05T04:38:04.541Z,6.40
2022-11-05T04:40:33.187Z,6.23
2022-11-05T04:43:01.535Z,5.37
2022-11-05T04:45:30.487Z,5.73
2022-11-05T04:47:58.860Z,5.90
2022-11-05T04:50:27.117Z,5.63
2022-11-05T04:52:56.793Z,5.83
2022-11-05T04:55:25.087Z,6.03
2022-11-05T04:57:53.728Z,5.63
2022-11-05T05:00:22.603Z,5.37
2022-11-05T05:02:50.876Z,5.70
2022-11-05T05:05:19.040Z,6.30
2022-11-05T05:07:47.276Z,6.00
2022-11-05T05:10:17.105Z,6.47
2022-11-05T05:12:45.313Z,6.77
2022-11-05T05:15:13.529Z,6.93
2022-11-05T05:17:41.732Z,7.03
2022-11-05T05:20:27.911Z,7.00
2022-11-05T05:22:56.464Z,6.53
2022-11-05T05:25:26.085Z,7.10
2022-11-05T05:27:54.327Z,6.40
2022-11-05T05:30:22.497Z,6.93
2022-11-05T05:32:50.678Z,6.70
2022-11-05T05:35:19.042Z,7.30
2022-11-05T05:37:47.217Z,6.90
2022-11-05T05:40:15.462Z,7.10
2022-11-05T05:42:45.447Z,6.67
2022-11-05T05:45:14.224Z,7.70
2022-11-05T05:47:42.494Z,6.63
2022-11-05T05:50:10.684Z,6.90
2022-11-05T05:52:38.875Z,6.60
2022-11-05T05:55:07.497Z,6.77
2022-11-05T05:57:36.068Z,7.17
2022-11-05T06:00:06.371Z,7.10
2022-11-05T06:02:34.704Z,6.93
2022-11-05T06:05:03.047Z,6.87
2022-11-05T06:07:36.892Z,6.90
2022-11-05T06:10:05.915Z,7.43
2022-11-05T06:12:34.156Z,7.23
2022-11-05T06:15:02.337Z,8.27
2022-11-05T06:17:31.922Z,7.70
2022-11-05T06:20:00.159Z,7.50
2022-11-05T06:22:28.482Z,7.27
2022-11-05T06:24:56.831Z,7.20
2022-11-05T06:27:25.033Z,6.67
2022-11-05T06:29:53.275Z,7.03
2022-11-05T06:32:21.503Z,6.53
2022-11-05T06:34:51.132Z,7.40
2022-11-05T06:37:19.321Z,7.70
2022-11-05T06:39:47.814Z,6.63
2022-11-05T06:42:18.688Z,6.77
2022-11-05T06:44:47.428Z,7.00
2022-11-05T06:47:16.208Z,7.67
2022-11-05T06:49:45.154Z,7.47
2022-11-05T06:52:15.861Z,8.07
2022-11-05T06:54:44.395Z,7.60
2022-11-05T06:57:13.226Z,8.30
2022-11-05T06:59:41.533Z,7.97
2022-11-05T07:02:12.140Z,8.03
2022-11-05T07:04:40.455Z,8.87
2022-11-05T07:07:09.053Z,8.17
2022-11-05T07:09:42.533Z,8.43
2022-11-05T07:12:11.238Z,8.87
2022-11-05T07:14:39.610Z,8.93
2022-11-05T07:17:07.857Z,8.60
2022-11-05T07:19:36.440Z,8.60
2022-11-05T07:22:05.014Z,7.50
2022-11-05T07:24:33.260Z,8.47
2022-11-05T07:27:03.093Z,7.93
2022-11-05T07:29:31.387Z,8.93
2022-11-05T07:31:59.754Z,9.50
2022-11-05T07:34:28.114Z,8.37
2022-11-05T07:36:56.310Z,7.40
2022-11-05T07:39:24.608Z,6.70
2022-11-05T07:41:54.808Z,6.83
2022-11-05T07:44:24.403Z,6.30
2022-11-05T07:46:52.847Z,6.27
2022-11-05T07:49:21.162Z,6.47
2022-11-05T07:51:49.665Z,6.00
2022-11-05T07:54:17.876Z,6.33
2022-11-05T07:56:48.422Z,6.03
2022-11-05T07:59:16.642Z,6.03
2022-11-05T08:01:46.728Z,6.70
2022-11-05T08:04:18.485Z,5.87
2022-11-05T08:06:50.995Z,5.53
2022-11-05T08:09:20.105Z,5.60
2022-11-05T08:11:51.183Z,5.73
2022-11-05T08:14:21.201Z,5.67
2022-11-05T08:16:50.872Z,5.93
2022-11-05T08:19:19.524Z,5.43
2022-11-05T08:21:47.739Z,5.37
2022-11-05T08:24:15.932Z,5.63
2022-11-05T08:26:44.137Z,5.70
2022-11-05T08:29:12.338Z,5.33
2022-11-05T08:31:40.593Z,5.63
2022-11-05T08:34:10.171Z,5.20
2022-11-05T08:36:41.918Z,5.63
2022-11-05T08:39:15.816Z,5.60
2022-11-05T08:41:45.618Z,5.30
2022-11-05T08:44:13.805Z,5.30
2022-11-05T08:46:42.028Z,5.50
2022-11-05T08:49:11.784Z,5.30
2022-11-05T08:51:40.034Z,5.53
2022-11-05T08:54:08.352Z,5.03
2022-11-05T08:56:36.611Z,5.40
2022-11-05T08:59:05.060Z,5.17
2022-11-05T09:01:34.419Z,5.10
2022-11-05T09:04:02.775Z,5.20
2022-11-05T09:06:32.410Z,5.40
2022-11-05T09:09:00.652Z,5.40
2022-11-05T09:11:49.687Z,5.03
2022-11-05T09:14:17.118Z,5.33
2022-11-05T09:16:45.466Z,5.40
2022-11-05T09:19:13.683Z,5.20
2022-11-05T09:21:43.263Z,4.70
2022-11-05T09:24:11.480Z,4.90
2022-11-05T09:26:39.796Z,4.80
2022-11-05T09:29:13.163Z,4.40
2022-11-05T09:31:42.557Z,4.57
2022-11-05T09:34:10.842Z,4.53
2022-11-05T09:36:39.082Z,4.73
2022-11-05T09:39:08.756Z,4.70
2022-11-05T09:41:37.898Z,4.50
2022-11-05T09:44:07.347Z,7.53
2022-11-05T09:46:40.797Z,4.97
2022-11-05T09:49:12.683Z,6.30
2022-11-05T09:51:41.346Z,4.80
2022-11-05T09:54:11.889Z,5.30
2022-11-05T09:56:42.673Z,5.23
2022-11-05T09:59:16.108Z,5.67
2022-11-05T10:01:45.226Z,6.10
2022-11-05T10:04:16.104Z,6.37
2022-11-05T10:06:47.466Z,6.80
2022-11-05T10:09:20.011Z,6.47
2022-11-05T10:11:49.932Z,6.53
2022-11-05T10:14:21.955Z,6.73
2022-11-05T10:16:53.878Z,6.30
2022-11-05T10:19:24.635Z,6.13
2022-11-05T10:22:11.725Z,5.93
2022-11-05T10:24:42.664Z,5.13
2022-11-05T10:27:12.803Z,5.27
2022-11-05T10:29:41.089Z,5.80
2022-11-05T10:32:09.646Z,5.60
2022-11-05T10:34:39.478Z,5.43
2022-11-05T10:37:08.021Z,4.93
2022-11-05T10:39:36.736Z,5.13
2022-11-05T10:42:11.219Z,5.00
2022-11-05T10:44:43.946Z,4.97
2022-11-05T10:47:25.121Z,4.60
2022-11-05T10:49:59.052Z,4.80
2022-11-05T10:52:29.223Z,4.60
2022-11-05T10:54:58.753Z,4.90
2022-11-05T10:57:33.313Z,5.07
2022-11-05T11:00:20.588Z,4.90
2022-11-05T11:02:50.156Z,5.33
2022-11-05T11:05:23.153Z,4.87
2022-11-05T11:07:59.339Z,5.13
2022-11-05T11:10:27.930Z,5.43
2022-11-05T11:12:58.467Z,5.43
2022-11-05T11:15:28.447Z,5.10
2022-11-05T11:17:57.609Z,5.37
2022-11-05T11:20:27.954Z,5.03
2022-11-05T11:23:01.036Z,4.70
2022-11-05T11:25:30.425Z,6.00
2022-11-05T11:28:03.282Z,5.70
2022-11-05T11:30:31.782Z,5.27
2022-11-05T11:33:08.461Z,5.47
2022-11-05T11:35:38.201Z,5.43
2022-11-05T11:38:07.170Z,5.30
2022-11-05T11:40:36.870Z,5.00
2022-11-05T11:43:07.904Z,4.57
2022-11-05T11:45:38.721Z,5.00
2022-11-05T11:48:07.729Z,5.00
2022-11-05T11:50:38.530Z,4.50
2022-11-05T11:53:34.109Z,5.53
2022-11-05T11:56:03.963Z,4.83
2022-11-05T11:58:41.695Z,5.23
2022-11-05T12:01:23.637Z,5.40
2022-11-05T12:03:53.307Z,5.27
2022-11-05T12:06:27.661Z,5.53
2022-11-05T12:09:06.412Z,5.33
2022-11-05T12:11:40.077Z,5.37
2022-11-05T12:14:19.084Z,5.67
2022-11-05T12:16:54.604Z,4.80
2022-11-05T12:19:30.743Z,5.53
2022-11-05T12:22:02.388Z,5.17
2022-11-05T12:24:41.403Z,4.77
2022-11-05T12:27:16.811Z,4.80
2022-11-05T12:29:50.969Z,4.03
2022-11-05T12:32:27.354Z,4.90
2022-11-05T12:34:58.330Z,4.27
2022-11-05T12:37:30.899Z,4.90
2022-11-05T12:40:04.029Z,4.33
2022-11-05T12:42:43.711Z,4.70
2022-11-05T12:45:22.945Z,4.20
2022-11-05T12:47:59.263Z,5.00
2022-11-05T12:50:30.508Z,4.70
2022-11-05T12:53:11.899Z,4.50
2022-11-05T12:55:47.087Z,4.90
2022-11-05T12:58:20.094Z,4.77
2022-11-05T13:00:52.921Z,4.93
2022-11-05T13:03:26.249Z,5.47
2022-11-05T13:06:00.191Z,5.00
2022-11-05T13:08:34.831Z,4.67
2022-11-05T13:11:08.673Z,4.87
2022-11-05T13:13:38.457Z,4.43
2022-11-05T13:16:12.241Z,4.70
2022-11-05T13:18:43.793Z,5.10
2022-11-05T13:21:12.800Z,4.47
2022-11-05T13:23:42.478Z,4.30
2022-11-05T13:26:18.470Z,3.63
2022-11-05T13:28:51.525Z,4.10
2022-11-05T13:31:22.658Z,3.57
2022-11-05T13:33:52.994Z,3.47
2022-11-05T13:36:41.332Z,3.87
2022-11-05T13:39:14.097Z,3.30
2022-11-05T13:41:50.118Z,3.17
2022-11-05T13:44:42.440Z,3.20
2022-11-05T13:47:24.508Z,3.33
2022-11-05T13:50:08.429Z,3.93
2022-11-05T13:52:43.584Z,3.57
2022-11-05T13:55:23.507Z,3.33
2022-11-05T13:57:59.045Z,3.40
2022-11-05T14:00:28.408Z,3.40
2022-11-05T14:02:59.884Z,2.93
2022-11-05T14:05:30.398Z,3.43
2022-11-05T14:07:59.783Z,3.00
2022-11-05T14:10:32.927Z,3.20
2022-11-05T14:13:03.461Z,3.30
2022-11-05T14:15:33.204Z,3.10
2022-11-05T14:18:04.382Z,3.13
2022-11-05T14:20:45.755Z,3.33
2022-11-05T14:23:31.717Z,3.10
2022-11-05T14:26:13.336Z,3.30
2022-11-05T14:28:45.167Z,3.97
2022-11-05T14:31:41.084Z,4.37
2022-11-05T14:34:23.780Z,3.83
2022-11-05T14:37:15.721Z,7.03
2022-11-05T14:39:44.126Z,3.47
2022-11-05T14:42:13.407Z,3.20
2022-11-05T14:44:58.153Z,3.40
2022-11-05T14:47:27.939Z,3.87
2022-11-05T14:50:00.797Z,3.03
2022-11-05T14:52:29.237Z,3.43
2022-11-05T14:54:58.754Z,3.60
2022-11-05T14:57:47.103Z,3.97
2022-11-05T15:00:30.188Z,3.90
2022-11-05T15:02:59.249Z,4.27
2022-11-05T15:05:50.008Z,4.23
2022-11-05T15:08:36.557Z,4.40
2022-11-05T15:11:10.279Z,4.50
2022-11-05T15:13:42.228Z,4.27
2022-11-05T15:16:10.614Z,4.30
2022-11-05T15:18:42.519Z,3.90
2022-11-05T15:21:15.144Z,3.60
2022-11-05T15:23:44.597Z,3.90
2022-11-05T15:26:14.230Z,4.20
2022-11-05T15:28:43.963Z,4.03
2022-11-05T15:31:24.358Z,3.73
2022-11-05T15:33:52.593Z,4.17
2022-11-05T15:36:25.084Z,4.70
2022-11-05T15:39:22.917Z,4.30
2022-11-05T15:41:41.953Z,4.43
2022-11-05T15:44:24.648Z,4.50
2022-11-05T15:47:06.352Z,4.50
2022-11-05T15:49:34.656Z,4.40
2022-11-05T15:52:04.773Z,4.90
2022-11-05T15:54:33.588Z,4.40
2022-11-05T15:57:02.170Z,4.73
2022-11-05T15:59:31.365Z,4.70
2022-11-05T16:02:02.015Z,4.73
2022-11-05T16:04:31.796Z,4.37
2022-11-05T16:07:01.502Z,4.83
2022-11-05T16:09:31.890Z,4.60
2022-11-05T16:12:21.182Z,4.73
2022-11-05T16:14:58.009Z,4.90
2022-11-05T16:17:27.158Z,5.40
2022-11-05T16:19:55.361Z,6.27
2022-11-05T16:22:23.954Z,5.23
2022-11-05T16:24:53.532Z,6.77
2022-11-05T16:27:23.143Z,7.97
2022-11-05T16:29:52.845Z,7.97
2022-11-05T16:32:28.612Z,7.97
2022-11-05T16:34:59.642Z,8.23
2022-11-05T16:37:28.597Z,10.17
2022-11-05T16:39:58.126Z,9.30
2022-11-05T16:42:38.092Z,6.73
2022-11-05T16:45:06.742Z,7.20
2022-11-05T16:47:35.029Z,6.90
2022-11-05T16:50:03.372Z,6.43
2022-11-05T16:52:31.591Z,6.50
2022-11-05T16:55:01.142Z,5.93
2022-11-05T16:57:30.497Z,5.03
2022-11-05T17:00:00.069Z,5.07
2022-11-05T17:02:28.485Z,4.90
2022-11-05T17:04:56.956Z,5.20
2022-11-05T17:07:25.211Z,5.30
2022-11-05T17:09:53.419Z,5.60
2022-11-05T17:12:23.063Z,5.50
2022-11-05T17:14:51.267Z,5.07
2022-11-05T17:17:19.466Z,4.53
2022-11-05T17:19:47.836Z,4.87
2022-11-05T17:22:16.061Z,4.90
2022-11-05T17:24:44.292Z,4.40
2022-11-05T17:27:12.531Z,4.73
2022-11-05T17:29:42.099Z,5.60
2022-11-05T17:32:10.453Z,5.37
2022-11-05T17:34:40.242Z,5.43
2022-11-05T17:37:08.425Z,5.83
2022-11-05T17:39:36.746Z,5.67
2022-11-05T17:42:05.005Z,6.23
2022-11-05T17:44:33.185Z,6.17
2022-11-05T17:47:02.747Z,5.73
2022-11-05T17:49:30.994Z,5.23
2022-11-05T17:51:59.223Z,4.90
2022-11-05T17:54:27.573Z,4.73
2022-11-05T17:56:55.842Z,5.23
2022-11-05T17:59:24.110Z,4.50
2022-11-05T18:01:52.406Z,4.77
2022-11-05T18:04:22.072Z,5.20
2022-11-05T18:06:50.377Z,5.13
2022-11-05T18:09:18.559Z,5.10
2022-11-05T18:11:46.780Z,5.30
2022-11-05T18:14:18.768Z,4.80
2022-11-05T18:16:49.975Z,5.37
2022-11-05T18:19:18.731Z,5.60
2022-11-05T18:21:48.363Z,5.90
2022-11-05T18:24:16.592Z,5.53
2022-11-05T18:26:44.780Z,5.60
2022-11-05T18:29:15.307Z,6.10
2022-11-05T18:31:43.517Z,6.17
2022-11-05T18:34:11.786Z,6.50
2022-11-05T18:36:40.003Z,6.37
2022-11-05T18:39:09.623Z,6.97
2022-11-05T18:41:37.832Z,6.70
2022-11-05T18:44:06.821Z,6.73
2022-11-05T18:46:57.006Z,6.27
2022-11-05T18:49:23.711Z,5.90
2022-11-05T18:51:51.940Z,6.83
2022-11-05T18:54:21.591Z,7.10
2022-11-05T18:56:49.841Z,6.97
2022-11-05T19:02:07.440Z,6.60
2022-11-05T19:04:36.625Z,6.53
2022-11-05T19:07:05.874Z,6.10
2022-11-05T19:09:36.066Z,6.27
2022-11-05T19:12:04.592Z,6.03
2022-11-05T19:14:32.859Z,6.00
2022-11-05T19:17:01.444Z,5.83
2022-11-05T19:19:30.097Z,6.07
2022-11-05T19:21:58.471Z,5.50
2022-11-05T19:24:26.733Z,5.73
2022-11-05T19:26:58.723Z,6.20
2022-11-05T19:29:27.315Z,5.53
2022-11-05T19:31:55.586Z,5.43
2022-11-05T19:34:23.825Z,5.30
2022-11-05T19:36:56.911Z,5.20
2022-11-05T19:39:25.228Z,5.43
2022-11-05T19:41:56.532Z,5.23
2022-11-05T19:44:43.230Z,5.10
2022-11-05T19:47:11.670Z,5.10
2022-11-05T19:49:40.147Z,5.67
2022-11-05T19:52:08.664Z,4.80
2022-11-05T19:54:36.931Z,5.53
2022-11-05T19:57:06.412Z,5.60
2022-11-05T19:59:40.171Z,6.07
2022-11-05T20:02:13.361Z,6.67
2022-11-05T20:04:44.224Z,7.30
2022-11-05T20:07:12.617Z,7.23
2022-11-05T20:09:40.907Z,5.50
2022-11-05T20:12:09.276Z,6.30
2022-11-05T20:14:39.048Z,6.27
2022-11-05T20:17:07.264Z,6.03
2022-11-05T20:19:35.537Z,5.50
2022-11-05T20:22:03.965Z,6.03
2022-11-05T20:24:32.167Z,4.87
2022-11-05T20:27:00.482Z,5.00
2022-11-05T20:29:34.991Z,3.77
2022-11-05T20:32:05.488Z,5.37
2022-11-05T20:34:34.942Z,5.27
2022-11-05T20:37:03.247Z,4.33
2022-11-05T20:39:31.484Z,4.07
2022-11-05T20:42:00.490Z,4.20
2022-11-05T20:44:28.783Z,3.90
2022-11-05T20:46:57.025Z,4.27
2022-11-05T20:49:26.635Z,4.60
2022-11-05T20:51:56.851Z,3.93
2022-11-05T20:54:25.415Z,4.90
2022-11-05T20:56:53.608Z,3.83
2022-11-05T20:59:21.871Z,3.80
2022-11-05T21:01:51.734Z,4.13
2022-11-05T21:04:20.035Z,3.87
2022-11-05T21:06:49.823Z,3.97
2022-11-05T21:09:18.098Z,4.30
2022-11-05T21:12:12.329Z,3.93
2022-11-05T21:14:41.107Z,4.30
2022-11-05T21:17:10.010Z,4.17
2022-11-05T21:19:38.283Z,3.93
2022-11-05T21:22:08.449Z,3.13
2022-11-05T21:24:36.872Z,3.90
2022-11-05T21:27:05.095Z,3.70
2022-11-05T21:29:33.339Z,3.77
2022-11-05T21:32:01.577Z,3.80
2022-11-05T21:34:29.807Z,3.53
2022-11-05T21:36:58.012Z,4.00
2022-11-05T21:39:27.735Z,3.87
2022-11-05T21:41:55.989Z,3.60
2022-11-05T21:44:24.193Z,4.23
2022-11-05T21:46:53.029Z,3.97
2022-11-05T21:49:21.248Z,4.20
2022-11-05T21:52:07.080Z,4.03
2022-11-05T21:54:54.484Z,3.93
2022-11-05T21:57:40.442Z,4.73
2022-11-05T22:00:10.642Z,4.10
2022-11-05T22:02:39.338Z,4.03
2022-11-05T22:05:08.485Z,3.80
2022-11-05T22:07:37.751Z,4.17
2022-11-05T22:10:14.656Z,3.90
2022-11-05T22:12:44.266Z,4.23
2022-11-05T22:15:12.771Z,4.90
2022-11-05T22:17:46.272Z,4.00
2022-11-05T22:20:15.278Z,4.23
2022-11-05T22:22:43.638Z,3.93
2022-11-05T22:25:14.302Z,4.33
2022-11-05T22:27:43.781Z,4.20
2022-11-05T22:30:12.580Z,4.07
2022-11-05T22:32:40.931Z,4.40
2022-11-05T22:35:09.499Z,4.07
2022-11-05T22:37:37.810Z,4.47
2022-11-05T22:40:06.361Z,4.43
2022-11-05T22:42:36.015Z,3.70
2022-11-05T22:45:04.330Z,4.33
2022-11-05T22:47:32.558Z,3.80
2022-11-05T22:50:00.778Z,3.93
2022-11-05T22:52:29.153Z,3.83
2022-11-05T22:54:57.330Z,3.60
2022-11-05T22:57:25.511Z,4.20
2022-11-05T22:59:55.059Z,4.23
2022-11-05T23:02:23.470Z,3.93
2022-11-05T23:04:52.949Z,3.90
2022-11-05T23:07:38.816Z,3.80
2022-11-05T23:10:25.295Z,3.80
2022-11-05T23:12:55.187Z,4.30
2022-11-05T23:15:42.378Z,3.70
2022-11-05T23:18:28.609Z,3.97
2022-11-05T23:21:17.006Z,3.50
2022-11-05T23:24:06.966Z,4.13
2022-11-05T23:26:51.155Z,3.80
2022-11-05T23:29:19.806Z,3.80
2022-11-05T23:32:07.073Z,3.90
2022-11-05T23:34:35.322Z,3.80
2022-11-05T23:37:21.196Z,3.90
2022-11-05T23:39:50.191Z,4.00
2022-11-05T23:42:36.043Z,3.97
2022-11-05T23:45:22.015Z,4.00
2022-11-05T23:48:09.556Z,4.53
2022-11-05T23:50:40.036Z,3.90
2022-11-05T23:53:08.775Z,3.57
2022-11-05T23:55:37.330Z,4.07
2022-11-05T23:58:05.746Z,3.97
